createdAt,value
2023-01-05T00:02:16.270Z,11.04
2023-01-05T00:07:21.492Z,11.06
2023-01-05T00:12:41.531Z,11.13
2023-01-05T00:18:02.869Z,11.15
2023-01-05T00:23:06.511Z,11.12
2023-01-05T00:28:09.607Z,11.07
2023-01-05T00:33:15.373Z,11.03
2023-01-05T00:38:18.154Z,11.08
2023-01-05T00:43:20.967Z,11.06
2023-01-05T00:48:25.230Z,11.03
2023-01-05T00:53:27.927Z,11.04
2023-01-05T00:58:30.680Z,10.98
2023-01-05T01:03:34.876Z,10.91
2023-01-05T01:08:37.864Z,10.89
2023-01-05T01:13:40.567Z,10.84
2023-01-05T01:18:44.653Z,10.88
2023-01-05T01:23:47.386Z,10.97
2023-01-05T01:28:50.366Z,10.96
2023-01-05T01:33:54.928Z,10.94
2023-01-05T01:38:57.993Z,10.66
2023-01-05T01:44:00.879Z,9.83
2023-01-05T01:49:08.510Z,9.34
2023-01-05T01:54:13.374Z,9.19
2023-01-05T01:59:17.323Z,9.17
2023-01-05T02:04:21.886Z,9.18
2023-01-05T02:09:26.163Z,9.27
2023-01-05T02:14:35.548Z,9.59
2023-01-05T02:20:13.949Z,10.11
2023-01-05T02:25:42.492Z,10.32
2023-01-05T02:31:00.362Z,10.39
2023-01-05T02:36:15.432Z,10.42
2023-01-05T02:41:23.485Z,10.44
2023-01-05T02:46:27.850Z,10.48
2023-01-05T02:51:36.373Z,10.53
2023-01-05T02:56:45.027Z,10.54
2023-01-05T03:01:53.024Z,10.54
2023-01-05T03:06:57.806Z,10.51
2023-01-05T03:12:22.962Z,10.27
2023-01-05T03:17:30.539Z,9.75
2023-01-05T03:22:52.693Z,9.71
2023-01-05T03:28:14.848Z,9.95
2023-01-05T03:33:44.464Z,9.35
2023-01-05T03:38:49.303Z,9.09
2023-01-05T03:43:52.362Z,9.14
2023-01-05T03:48:57.446Z,9.70
2023-01-05T03:54:02.830Z,10.05
2023-01-05T03:59:08.080Z,10.19
2023-01-05T04:04:15.083Z,10.27
2023-01-05T04:09:17.995Z,10.29
2023-01-05T04:14:21.659Z,10.27
2023-01-05T04:19:26.031Z,10.21
2023-01-05T04:24:30.956Z,10.15
2023-01-05T04:29:36.244Z,10.10
2023-01-05T04:34:40.273Z,10.07
2023-01-05T04:39:43.956Z,10.05
2023-01-05T04:44:48.338Z,10.01
2023-01-05T04:49:52.522Z,9.89
2023-01-05T04:54:55.516Z,9.77
2023-01-05T05:00:00.136Z,9.71
2023-01-05T05:05:04.799Z,9.76
2023-01-05T05:10:10.908Z,9.81
2023-01-05T05:15:18.284Z,9.85
2023-01-05T05:20:26.204Z,9.93
2023-01-05T05:25:29.972Z,9.94
2023-01-05T05:30:32.887Z,9.91
2023-01-05T05:35:37.087Z,9.84
2023-01-05T05:40:39.855Z,9.77
2023-01-05T05:45:47.914Z,9.72
2023-01-05T05:50:54.754Z,9.69
2023-01-05T05:55:57.448Z,9.66
2023-01-05T06:01:00.359Z,9.63
2023-01-05T06:06:05.097Z,9.63
2023-01-05T06:11:08.071Z,9.66
2023-01-05T06:16:11.347Z,9.70
2023-01-05T06:21:15.567Z,9.69
2023-01-05T06:26:18.363Z,9.66
2023-01-05T06:31:21.162Z,9.68
2023-01-05T06:36:25.368Z,9.66
2023-01-05T06:41:28.167Z,9.69
2023-01-05T06:46:30.844Z,9.72
2023-01-05T06:51:34.905Z,9.69
2023-01-05T06:56:37.737Z,9.67
2023-01-05T07:01:40.542Z,9.66
2023-01-05T07:06:44.873Z,9.66
2023-01-05T07:11:47.605Z,9.64
2023-01-05T07:16:50.455Z,9.61
2023-01-05T07:21:56.888Z,9.64
2023-01-05T07:27:03.076Z,9.62
2023-01-05T07:32:10.724Z,9.47
2023-01-05T07:37:15.270Z,9.55
2023-01-05T07:42:17.983Z,9.44
2023-01-05T07:47:22.620Z,9.53
2023-01-05T07:52:26.921Z,9.12
2023-01-05T07:57:29.653Z,9.21
2023-01-05T08:02:36.080Z,9.27
2023-01-05T08:07:40.547Z,8.77
2023-01-05T08:12:57.273Z,8.40
2023-01-05T08:18:00.091Z,8.30
2023-01-05T08:23:04.202Z,8.29
2023-01-05T08:28:06.991Z,8.39
2023-01-05T08:33:09.894Z,8.44
2023-01-05T08:38:13.978Z,8.35
2023-01-05T08:43:16.725Z,8.34
2023-01-05T08:48:19.547Z,8.32
2023-01-05T08:53:23.677Z,8.24
2023-01-05T08:58:26.411Z,8.27
2023-01-05T09:03:29.149Z,8.31
2023-01-05T09:08:34.655Z,8.37
2023-01-05T09:13:37.517Z,8.51
2023-01-05T09:18:41.690Z,8.53
2023-01-05T09:23:46.077Z,8.41
2023-01-05T09:28:48.787Z,8.36
2023-01-05T09:33:51.705Z,8.45
2023-01-05T09:38:57.085Z,8.55
2023-01-05T09:44:01.782Z,8.61
2023-01-05T09:49:06.405Z,8.63
2023-01-05T09:54:16.391Z,8.69
2023-01-05T09:59:23.604Z,8.81
2023-01-05T10:04:30.804Z,9.16
2023-01-05T10:09:38.197Z,9.38
2023-01-05T10:14:43.215Z,9.10
2023-01-05T10:19:46.280Z,8.84
2023-01-05T10:24:55.318Z,9.01
2023-01-05T10:30:04.439Z,9.44
2023-01-05T10:35:41.886Z,9.65
2023-01-05T10:40:52.219Z,9.14
2023-01-05T10:46:28.733Z,8.73
2023-01-05T10:51:17.710Z,8.66
2023-01-05T10:56:28.609Z,8.72
2023-01-05T11:01:31.994Z,8.89
2023-01-05T11:06:36.444Z,8.94
2023-01-05T11:11:40.705Z,8.97
2023-01-05T11:16:48.966Z,9.06
2023-01-05T11:21:56.642Z,9.40
2023-01-05T11:27:05.662Z,9.89
2023-01-05T11:32:13.048Z,10.00
2023-01-05T11:37:24.617Z,9.97
2023-01-05T11:42:34.028Z,9.90
2023-01-05T11:47:43.761Z,9.99
2023-01-05T11:52:49.903Z,9.86
2023-01-05T11:58:00.009Z,9.67
2023-01-05T12:03:20.202Z,9.46
2023-01-05T12:08:27.577Z,9.33
2023-01-05T12:13:55.483Z,9.51
2023-01-05T12:19:19.669Z,9.64
2023-01-05T12:24:40.324Z,9.66
2023-01-05T12:35:53.748Z,9.23
2023-01-05T12:41:09.891Z,9.33
2023-01-05T12:46:23.324Z,9.16
2023-01-05T12:51:32.541Z,9.13
2023-01-05T12:56:39.042Z,9.13
2023-01-05T13:01:45.487Z,9.10
2023-01-05T13:06:53.075Z,9.18
2023-01-05T13:12:00.590Z,9.14
2023-01-05T13:17:05.974Z,8.97
2023-01-05T13:22:16.446Z,8.90
2023-01-05T13:27:19.227Z,8.89
2023-01-05T13:32:33.439Z,8.95
2023-01-05T13:37:52.780Z,8.91
2023-01-05T13:43:15.513Z,8.90
2023-01-05T13:48:44.097Z,8.83
2023-01-05T13:53:49.597Z,8.81
2023-01-05T13:58:54.002Z,8.88
2023-01-05T14:03:58.199Z,9.02
2023-01-05T14:09:05.452Z,9.19
2023-01-05T14:14:26.541Z,9.48
2023-01-05T14:19:52.026Z,9.57
2023-01-05T14:24:56.219Z,9.63
2023-01-05T14:30:04.021Z,9.59
2023-01-05T14:35:18.355Z,9.46
2023-01-05T14:40:36.510Z,9.28
2023-01-05T14:45:40.592Z,9.26
2023-01-05T14:50:43.882Z,9.28
2023-01-05T14:56:20.227Z,9.02
2023-01-05T15:01:27.065Z,9.12
2023-01-05T15:06:39.968Z,9.16
2023-01-05T15:12:02.467Z,9.12
2023-01-05T15:17:26.816Z,8.95
2023-01-05T15:22:39.751Z,8.94
2023-01-05T15:27:56.143Z,8.91
2023-01-05T15:33:06.053Z,8.78
2023-01-05T15:38:21.549Z,8.69
2023-01-05T15:43:25.847Z,8.59
2023-01-05T15:48:31.143Z,8.57
2023-01-05T15:53:38.054Z,8.50
2023-01-05T15:58:45.978Z,8.49
2023-01-05T16:03:49.748Z,8.44
2023-01-05T16:08:55.773Z,8.36
2023-01-05T16:14:02.193Z,8.37
2023-01-05T16:19:09.913Z,8.35
2023-01-05T16:24:18.032Z,8.37
2023-01-05T16:29:39.252Z,8.35
2023-01-05T16:34:42.068Z,8.38
2023-01-05T16:39:46.082Z,8.39
2023-01-05T16:44:57.531Z,8.43
2023-01-05T16:50:00.421Z,8.40
2023-01-05T16:55:27.599Z,8.42
2023-01-05T17:00:41.412Z,8.36
2023-01-05T17:05:44.131Z,8.37
2023-01-05T17:10:47.151Z,8.31
2023-01-05T17:15:53.183Z,8.35
2023-01-05T17:20:57.815Z,8.40
2023-01-05T17:26:03.712Z,8.47
2023-01-05T17:31:08.056Z,8.51
2023-01-05T17:36:11.552Z,8.38
2023-01-05T17:41:16.086Z,8.40
2023-01-05T17:46:22.954Z,8.35
2023-01-05T17:51:28.037Z,8.26
2023-01-05T18:01:39.797Z,8.27
2023-01-05T18:06:42.616Z,8.24
2023-01-05T18:11:45.404Z,8.24
2023-01-05T18:16:49.687Z,8.25
2023-01-05T18:21:52.628Z,8.27
2023-01-05T18:26:55.986Z,8.29
2023-01-05T18:32:00.298Z,8.31
2023-01-05T18:37:06.410Z,8.30
2023-01-05T18:42:13.308Z,8.31
2023-01-05T18:47:17.467Z,8.25
2023-01-05T18:52:20.275Z,8.21
2023-01-05T18:57:23.102Z,8.21
2023-01-05T19:02:27.520Z,8.14
2023-01-05T19:07:30.462Z,8.13
2023-01-05T19:12:33.219Z,8.11
2023-01-05T19:17:37.501Z,8.09
2023-01-05T19:22:41.641Z,8.02
2023-01-05T19:27:45.489Z,8.02
2023-01-05T19:32:49.663Z,8.02
2023-01-05T19:37:52.638Z,7.99
2023-01-05T19:42:55.605Z,7.97
2023-01-05T19:47:59.864Z,7.88
2023-01-05T19:53:02.645Z,7.91
2023-01-05T19:58:05.548Z,7.90
2023-01-05T20:03:09.872Z,7.85
2023-01-05T20:08:12.775Z,7.83
2023-01-05T20:13:15.601Z,7.85
2023-01-05T20:18:19.696Z,7.85
2023-01-05T20:23:22.398Z,7.85
2023-01-05T20:28:25.500Z,7.88
2023-01-05T20:33:29.879Z,7.92
2023-01-05T20:38:37.900Z,7.89
2023-01-05T20:43:43.528Z,7.93
2023-01-05T20:48:49.714Z,7.88
2023-01-05T20:53:53.763Z,7.74
2023-01-05T20:58:56.809Z,7.72
2023-01-05T21:04:00.938Z,7.66
2023-01-05T21:09:05.051Z,7.67
2023-01-05T21:14:08.831Z,7.71
2023-01-05T21:19:17.568Z,7.71
2023-01-05T21:24:20.688Z,7.73
2023-01-05T21:29:25.937Z,7.81
2023-01-05T21:34:30.382Z,7.81
2023-01-05T21:39:33.371Z,7.89
2023-01-05T21:44:36.440Z,7.91
2023-01-05T21:49:40.755Z,7.98
2023-01-05T21:55:03.249Z,8.09
2023-01-05T22:00:07.516Z,8.17
2023-01-05T22:05:11.745Z,8.24
2023-01-05T22:10:14.875Z,8.25
2023-01-05T22:15:18.288Z,8.29
2023-01-05T22:20:22.532Z,8.31
2023-01-05T22:25:25.230Z,8.30
2023-01-05T22:30:28.121Z,8.28
2023-01-05T22:35:32.364Z,8.29
2023-01-05T22:40:35.258Z,8.27
2023-01-05T22:45:38.015Z,8.19
2023-01-05T22:50:42.169Z,8.20
2023-01-05T22:55:45.300Z,8.26
2023-01-05T23:00:48.116Z,8.30
2023-01-05T23:05:54.049Z,8.22
2023-01-05T23:11:00.758Z,8.14
2023-01-05T23:16:05.211Z,8.15
2023-01-05T23:21:11.606Z,8.15
2023-01-05T23:26:16.125Z,8.01
2023-01-05T23:31:19.247Z,7.95
2023-01-05T23:36:24.554Z,7.99
2023-01-05T23:41:27.349Z,7.98
2023-01-05T23:46:30.104Z,7.90
2023-01-05T23:51:34.202Z,7.85
2023-01-05T23:56:37.108Z,7.79
